createdAt,value
2022-09-23T00:01:25.205Z,7.31
2022-09-23T00:03:51.927Z,7.31
2022-09-23T00:06:25.731Z,7.31
2022-09-23T00:08:52.974Z,7.25
2022-09-23T00:11:22.165Z,7.20
2022-09-23T00:13:52.757Z,7.23
2022-09-23T00:16:23.963Z,7.29
2022-09-23T00:18:55.753Z,7.32
2022-09-23T00:21:24.632Z,7.21
2022-09-23T00:23:51.754Z,7.16
2022-09-23T00:26:20.584Z,7.10
2022-09-23T00:28:48.431Z,7.11
2022-09-23T00:31:26.186Z,7.10
2022-09-23T00:34:04.848Z,7.05
2022-09-23T00:36:32.473Z,7.09
2022-09-23T00:39:12.520Z,7.14
2022-09-23T00:41:40.525Z,7.07
2022-09-23T00:44:45.920Z,6.99
2022-09-23T00:47:52.326Z,7.07
2022-09-23T00:50:42.975Z,6.98
2022-09-23T00:53:15.995Z,6.88
2022-09-23T00:55:49.567Z,6.93
2022-09-23T00:58:22.694Z,6.95
2022-09-23T01:00:52.221Z,6.93
2022-09-23T01:03:20.022Z,6.94
2022-09-23T01:05:47.422Z,6.91
2022-09-23T01:08:16.610Z,6.83
2022-09-23T01:11:11.364Z,6.82
2022-09-23T01:13:43.868Z,6.82
2022-09-23T01:16:35.836Z,6.77
2022-09-23T01:19:27.719Z,6.69
2022-09-23T01:22:19.243Z,6.68
2022-09-23T01:24:49.352Z,6.64
2022-09-23T01:27:31.181Z,6.57
2022-09-23T01:30:09.576Z,6.52
2022-09-23T01:32:43.682Z,6.46
2022-09-23T01:35:30.523Z,6.42
2022-09-23T01:38:12.827Z,6.47
2022-09-23T01:40:52.310Z,6.41
2022-09-23T01:43:26.572Z,6.37
2022-09-23T01:46:00.540Z,6.32
2022-09-23T01:48:42.731Z,6.21
2022-09-23T01:51:16.757Z,6.11
2022-09-23T01:53:54.966Z,5.97
2022-09-23T01:56:31.512Z,5.98
2022-09-23T01:59:37.963Z,6.05
2022-09-23T02:02:20.345Z,6.05
2022-09-23T02:05:10.781Z,5.94
2022-09-23T02:07:46.056Z,5.88
2022-09-23T02:10:20.588Z,5.93
2022-09-23T02:12:57.907Z,5.85
2022-09-23T02:15:33.923Z,5.80
2022-09-23T02:18:12.742Z,5.83
2022-09-23T02:20:42.097Z,5.79
2022-09-23T02:23:23.197Z,5.83
2022-09-23T02:25:59.204Z,5.86
2022-09-23T02:28:37.540Z,5.81
2022-09-23T02:31:17.715Z,5.76
2022-09-23T02:33:56.883Z,5.73
2022-09-23T02:36:54.934Z,5.76
2022-09-23T02:39:27.068Z,5.74
2022-09-23T02:42:04.589Z,5.76
2022-09-23T02:44:41.277Z,5.74
2022-09-23T02:47:10.991Z,5.78
2022-09-23T02:49:37.909Z,5.81
2022-09-23T02:52:07.811Z,5.85
2022-09-23T02:54:37.644Z,5.81
2022-09-23T02:57:09.594Z,5.76
2022-09-23T02:59:39.065Z,5.75
2022-09-23T03:02:14.360Z,5.79
2022-09-23T03:04:46.287Z,5.81
2022-09-23T03:07:56.096Z,5.77
2022-09-23T03:10:25.162Z,5.73
2022-09-23T03:13:06.455Z,5.75
2022-09-23T03:15:44.138Z,5.65
2022-09-23T03:18:20.401Z,5.64
2022-09-23T03:20:52.764Z,5.66
2022-09-23T03:23:26.412Z,5.60
2022-09-23T03:25:59.489Z,5.54
2022-09-23T03:28:31.165Z,5.51
2022-09-23T03:31:04.831Z,5.44
2022-09-23T03:33:35.258Z,5.43
2022-09-23T03:36:26.996Z,5.37
2022-09-23T03:39:03.807Z,5.34
2022-09-23T03:41:38.093Z,5.23
2022-09-23T03:44:11.044Z,5.18
2022-09-23T03:46:43.010Z,5.21
2022-09-23T03:49:22.493Z,5.26
2022-09-23T03:51:49.127Z,5.22
2022-09-23T03:54:15.882Z,5.19
2022-09-23T03:56:42.573Z,5.26
2022-09-23T03:59:09.823Z,5.30
2022-09-23T04:01:38.667Z,5.28
2022-09-23T04:04:05.583Z,5.27
2022-09-23T04:06:32.432Z,5.26
2022-09-23T04:08:59.284Z,5.27
2022-09-23T04:11:26.074Z,5.29
2022-09-23T04:13:54.977Z,5.32
2022-09-23T04:16:22.399Z,5.29
2022-09-23T04:18:54.083Z,5.23
2022-09-23T04:21:24.166Z,5.17
2022-09-23T04:23:55.472Z,5.20
2022-09-23T04:26:22.262Z,5.24
2022-09-23T04:28:49.171Z,5.26
2022-09-23T04:31:18.779Z,5.29
2022-09-23T04:33:48.335Z,5.31
2022-09-23T04:36:15.388Z,5.29
2022-09-23T04:38:46.652Z,5.24
2022-09-23T04:41:16.175Z,5.16
2022-09-23T04:43:46.472Z,5.18
2022-09-23T04:46:17.201Z,5.10
2022-09-23T04:48:49.617Z,5.09
2022-09-23T04:51:21.789Z,5.15
2022-09-23T04:53:50.397Z,5.20
2022-09-23T04:56:23.012Z,5.16
2022-09-23T04:58:52.920Z,5.11
2022-09-23T05:03:59.905Z,5.09
2022-09-23T05:06:26.359Z,5.09
2022-09-23T05:08:56.357Z,5.10
2022-09-23T05:11:24.445Z,5.17
2022-09-23T05:13:57.325Z,5.08
2022-09-23T05:16:24.531Z,5.22
2022-09-23T05:18:52.440Z,5.23
2022-09-23T05:21:21.631Z,5.23
2022-09-23T05:23:54.955Z,5.26
2022-09-23T05:26:23.539Z,5.18
2022-09-23T05:28:50.085Z,5.21
2022-09-23T05:31:22.192Z,5.25
2022-09-23T05:33:57.485Z,5.40
2022-09-23T05:36:25.537Z,5.37
2022-09-23T05:38:53.514Z,5.47
2022-09-23T05:41:22.903Z,5.43
2022-09-23T05:43:51.706Z,5.46
2022-09-23T05:46:20.930Z,5.50
2022-09-23T05:48:47.486Z,5.52
2022-09-23T05:51:20.811Z,5.52
2022-09-23T05:53:50.790Z,5.59
2022-09-23T05:56:19.673Z,5.63
2022-09-23T05:58:48.332Z,5.68
2022-09-23T06:01:18.260Z,5.64
2022-09-23T06:03:52.312Z,5.77
2022-09-23T06:06:21.121Z,5.90
2022-09-23T06:08:47.928Z,5.92
2022-09-23T06:11:14.613Z,6.01
2022-09-23T06:13:41.642Z,6.05
2022-09-23T06:16:13.750Z,6.14
2022-09-23T06:18:42.094Z,6.13
2022-09-23T06:21:11.936Z,6.10
2022-09-23T06:23:42.298Z,6.19
2022-09-23T06:26:11.498Z,6.17
2022-09-23T06:28:40.389Z,6.17
2022-09-23T06:31:13.973Z,6.21
2022-09-23T06:33:42.646Z,6.23
2022-09-23T06:36:10.295Z,6.29
2022-09-23T06:38:41.737Z,6.44
2022-09-23T06:41:08.331Z,6.43
2022-09-23T06:43:34.964Z,6.57
2022-09-23T06:46:04.218Z,6.70
2022-09-23T06:48:36.974Z,6.79
2022-09-23T06:51:07.202Z,6.89
2022-09-23T06:53:34.361Z,6.91
2022-09-23T06:56:08.334Z,6.98
2022-09-23T06:58:36.356Z,7.08
2022-09-23T07:01:08.214Z,7.08
2022-09-23T07:03:36.036Z,7.24
2022-09-23T07:06:03.402Z,7.39
2022-09-23T07:08:30.957Z,7.53
2022-09-23T07:10:59.397Z,7.67
2022-09-23T07:13:26.781Z,7.84
2022-09-23T07:16:01.888Z,7.97
2022-09-23T07:18:36.475Z,8.20
2022-09-23T07:21:06.957Z,8.40
2022-09-23T07:23:33.620Z,8.58
2022-09-23T07:26:00.793Z,8.81
2022-09-23T07:28:29.865Z,8.96
2022-09-23T07:31:00.229Z,9.17
2022-09-23T07:33:33.823Z,9.40
2022-09-23T07:36:08.605Z,9.70
2022-09-23T07:38:35.966Z,9.91
2022-09-23T07:41:08.959Z,10.17
2022-09-23T07:43:39.847Z,10.46
2022-09-23T07:46:09.692Z,10.69
2022-09-23T07:48:37.216Z,10.86
2022-09-23T07:51:08.209Z,10.93
2022-09-23T07:53:34.762Z,11.07
2022-09-23T07:56:01.502Z,11.04
2022-09-23T07:58:28.058Z,11.18
2022-09-23T08:00:54.501Z,11.34
2022-09-23T08:03:21.213Z,11.62
2022-09-23T08:05:47.747Z,11.76
2022-09-23T08:08:14.313Z,11.99
2022-09-23T08:10:40.868Z,12.20
2022-09-23T08:13:07.424Z,12.40
2022-09-23T08:15:34.263Z,12.55
2022-09-23T08:18:01.203Z,12.77
2022-09-23T08:23:33.631Z,12.82
2022-09-23T08:26:11.753Z,13.03
2022-09-23T08:28:45.126Z,13.45
2022-09-23T08:31:14.127Z,13.70
2022-09-23T08:33:41.068Z,13.87
2022-09-23T08:36:08.072Z,13.70
2022-09-23T08:38:37.104Z,13.67
2022-09-23T08:41:20.553Z,13.88
2022-09-23T08:43:51.544Z,14.04
2022-09-23T08:46:25.870Z,13.82
2022-09-23T08:48:53.575Z,13.82
2022-09-23T08:51:29.269Z,13.96
2022-09-23T08:53:55.900Z,14.03
2022-09-23T08:56:25.389Z,14.28
2022-09-23T08:59:17.790Z,14.37
2022-09-23T09:01:48.112Z,14.46
2022-09-23T09:04:26.475Z,14.39
2022-09-23T09:07:12.414Z,14.58
2022-09-23T09:09:51.316Z,15.15
2022-09-23T09:12:22.717Z,15.36
2022-09-23T09:15:03.226Z,15.53
2022-09-23T09:17:38.332Z,15.34
2022-09-23T09:20:29.408Z,15.40
2022-09-23T09:22:59.801Z,15.46
2022-09-23T09:25:49.979Z,15.22
2022-09-23T09:28:22.437Z,15.40
2022-09-23T09:30:55.487Z,15.69
2022-09-23T09:33:30.511Z,15.82
2022-09-23T09:36:20.008Z,15.80
2022-09-23T09:38:46.789Z,15.88
2022-09-23T09:41:18.365Z,15.80
2022-09-23T09:43:57.546Z,15.92
2022-09-23T09:46:39.321Z,15.88
2022-09-23T09:49:14.915Z,16.22
2022-09-23T09:51:42.521Z,16.39
2022-09-23T09:54:27.360Z,16.52
2022-09-23T09:56:54.621Z,16.61
2022-09-23T09:59:27.418Z,16.76
2022-09-23T10:02:32.890Z,16.79
2022-09-23T10:05:06.092Z,16.80
2022-09-23T10:07:34.432Z,16.79
2022-09-23T10:10:33.294Z,16.87
2022-09-23T10:13:15.227Z,17.31
2022-09-23T10:15:45.215Z,17.57
2022-09-23T10:18:20.261Z,17.80
2022-09-23T10:20:48.063Z,17.33
2022-09-23T10:23:28.258Z,17.17
2022-09-23T10:26:00.708Z,17.38
2022-09-23T10:28:43.377Z,17.45
2022-09-23T10:31:13.915Z,17.70
2022-09-23T10:33:49.379Z,17.86
2022-09-23T10:36:17.888Z,17.66
2022-09-23T10:38:48.676Z,17.64
2022-09-23T10:42:02.396Z,17.93
2022-09-23T10:45:05.470Z,18.23
2022-09-23T10:47:47.881Z,18.38
2022-09-23T10:50:38.531Z,18.53
2022-09-23T10:53:28.419Z,18.39
2022-09-23T10:56:18.917Z,18.48
2022-09-23T10:59:12.266Z,18.29
2022-09-23T11:01:54.143Z,18.08
2022-09-23T11:04:29.734Z,17.87
2022-09-23T11:07:38.044Z,17.95
2022-09-23T11:10:46.542Z,18.06
2022-09-23T11:13:29.967Z,18.06
2022-09-23T11:16:25.115Z,18.08
2022-09-23T11:19:07.742Z,18.23
2022-09-23T11:22:09.697Z,18.55
2022-09-23T11:25:01.767Z,18.77
2022-09-23T11:28:03.848Z,18.70
2022-09-23T11:31:06.323Z,18.76
2022-09-23T11:33:52.793Z,18.85
2022-09-23T11:36:37.984Z,18.62
2022-09-23T11:39:31.269Z,18.30
2022-09-23T11:42:00.826Z,18.07
2022-09-23T11:44:39.591Z,18.07
2022-09-23T11:47:15.693Z,18.21
2022-09-23T11:50:05.038Z,18.24
2022-09-23T11:52:44.056Z,18.27
2022-09-23T11:55:22.564Z,18.46
2022-09-23T11:57:52.824Z,18.57
2022-09-23T12:00:23.258Z,18.82
2022-09-23T12:03:42.460Z,18.84
2022-09-23T12:06:19.516Z,18.80
2022-09-23T12:08:53.609Z,18.88
2022-09-23T12:11:32.062Z,18.84
2022-09-23T12:14:19.455Z,18.78
2022-09-23T12:17:07.052Z,19.04
2022-09-23T12:19:56.149Z,19.15
2022-09-23T12:22:41.457Z,19.23
2022-09-23T12:25:27.727Z,19.13
2022-09-23T12:28:00.892Z,18.93
2022-09-23T12:30:32.045Z,19.09
2022-09-23T12:33:14.809Z,19.14
2022-09-23T12:35:45.392Z,19.24
2022-09-23T12:38:14.286Z,19.38
2022-09-23T12:40:45.516Z,19.62
2022-09-23T12:43:35.654Z,19.58
2022-09-23T12:46:25.897Z,19.24
2022-09-23T12:48:58.361Z,19.35
2022-09-23T12:51:27.013Z,19.11
2022-09-23T12:53:55.800Z,19.22
2022-09-23T12:56:26.494Z,19.48
2022-09-23T12:58:59.773Z,19.36
2022-09-23T13:01:27.215Z,19.10
2022-09-23T13:04:14.401Z,19.04
2022-09-23T13:06:57.412Z,19.18
2022-09-23T13:09:30.026Z,19.23
2022-09-23T13:12:01.081Z,19.26
2022-09-23T13:14:29.890Z,19.36
2022-09-23T13:16:58.500Z,19.43
2022-09-23T13:19:28.043Z,19.73
2022-09-23T13:21:54.397Z,19.94
2022-09-23T13:24:24.953Z,20.27
2022-09-23T13:26:55.029Z,19.91
2022-09-23T13:29:33.388Z,19.74
2022-09-23T13:32:02.579Z,19.98
2022-09-23T13:34:32.807Z,19.82
2022-09-23T13:37:20.145Z,19.63
2022-09-23T13:39:48.834Z,19.68
2022-09-23T13:42:28.585Z,19.82
2022-09-23T13:44:57.691Z,19.84
2022-09-23T13:47:27.674Z,19.95
2022-09-23T13:49:54.725Z,20.25
2022-09-23T13:52:31.480Z,20.45
2022-09-23T13:54:57.997Z,20.46
2022-09-23T13:57:34.922Z,20.61
2022-09-23T14:00:19.141Z,20.52
2022-09-23T14:02:46.951Z,20.53
2022-09-23T14:05:21.595Z,20.46
2022-09-23T14:07:50.827Z,20.38
2022-09-23T14:10:21.308Z,20.36
2022-09-23T14:12:50.404Z,20.23
2022-09-23T14:15:19.489Z,20.23
2022-09-23T14:17:54.079Z,20.27
2022-09-23T14:20:22.166Z,20.34
2022-09-23T14:22:48.648Z,20.34
2022-09-23T14:25:17.481Z,20.23
2022-09-23T14:27:44.970Z,19.83
2022-09-23T14:30:17.885Z,19.92
2022-09-23T14:32:47.341Z,19.79
2022-09-23T14:35:24.069Z,19.83
2022-09-23T14:38:12.973Z,19.98
2022-09-23T14:41:15.582Z,20.24
2022-09-23T14:44:04.542Z,20.20
2022-09-23T14:46:34.922Z,20.05
2022-09-23T14:49:10.663Z,19.93
2022-09-23T14:51:55.431Z,20.12
2022-09-23T14:54:23.378Z,20.26
2022-09-23T14:56:50.446Z,20.08
2022-09-23T14:59:31.504Z,20.10
2022-09-23T15:01:58.231Z,20.09
2022-09-23T15:04:24.611Z,19.98
2022-09-23T15:06:55.374Z,19.90
2022-09-23T15:09:33.367Z,19.76
2022-09-23T15:12:04.528Z,19.84
2022-09-23T15:14:42.965Z,19.69
2022-09-23T15:17:30.225Z,19.86
2022-09-23T15:20:00.642Z,19.83
2022-09-23T15:22:28.038Z,19.74
2022-09-23T15:25:09.178Z,19.69
2022-09-23T15:27:36.559Z,19.62
2022-09-23T15:30:28.434Z,19.68
2022-09-23T15:32:56.462Z,19.54
2022-09-23T15:35:35.189Z,19.48
2022-09-23T15:38:04.528Z,19.43
2022-09-23T15:40:33.715Z,19.35
2022-09-23T15:43:24.961Z,19.39
2022-09-23T15:46:07.629Z,19.44
2022-09-23T15:48:40.311Z,19.46
2022-09-23T15:51:11.039Z,19.34
2022-09-23T15:53:40.101Z,19.41
2022-09-23T15:56:07.499Z,19.41
2022-09-23T15:58:34.190Z,19.37
2022-09-23T16:01:04.768Z,19.27
2022-09-23T16:03:31.685Z,19.14
2022-09-23T16:06:01.397Z,19.13
2022-09-23T16:08:33.060Z,19.35
2022-09-23T16:11:01.885Z,19.45
2022-09-23T16:13:31.327Z,19.51
2022-09-23T16:16:01.179Z,19.91
2022-09-23T16:18:27.688Z,20.41
2022-09-23T16:20:54.648Z,20.50
2022-09-23T16:23:38.793Z,20.56
2022-09-23T16:26:05.427Z,19.96
2022-09-23T16:28:34.311Z,19.84
2022-09-23T16:31:04.103Z,19.47
2022-09-23T16:33:30.808Z,19.05
2022-09-23T16:36:00.768Z,18.83
2022-09-23T16:38:28.931Z,18.63
2022-09-23T16:41:00.696Z,18.31
2022-09-23T16:43:32.601Z,18.12
2022-09-23T16:45:59.119Z,17.96
2022-09-23T16:48:25.624Z,17.84
2022-09-23T16:50:53.897Z,17.68
2022-09-23T16:53:21.109Z,17.51
2022-09-23T16:55:47.455Z,17.44
2022-09-23T16:58:13.831Z,17.26
2022-09-23T17:00:58.839Z,17.18
2022-09-23T17:03:40.802Z,17.05
2022-09-23T17:06:10.299Z,16.99
2022-09-23T17:08:38.246Z,16.92
2022-09-23T17:11:05.304Z,16.93
2022-09-23T17:13:32.440Z,16.76
2022-09-23T17:15:59.515Z,16.70
2022-09-23T17:18:26.935Z,16.62
2022-09-23T17:21:01.785Z,16.47
2022-09-23T17:23:29.565Z,16.32
2022-09-23T17:25:59.798Z,16.24
2022-09-23T17:28:32.182Z,16.12
2022-09-23T17:31:00.632Z,15.95
2022-09-23T17:33:29.168Z,15.85
2022-09-23T17:35:56.938Z,15.68
2022-09-23T17:38:29.385Z,15.48
2022-09-23T17:40:58.995Z,15.51
2022-09-23T17:43:25.782Z,15.45
2022-09-23T17:45:57.166Z,15.31
2022-09-23T17:48:25.332Z,15.22
2022-09-23T17:51:02.035Z,15.06
2022-09-23T17:53:36.926Z,15.04
2022-09-23T17:56:11.487Z,14.99
2022-09-23T17:58:38.430Z,14.89
2022-09-23T18:01:09.779Z,14.79
2022-09-23T18:03:36.415Z,14.67
2022-09-23T18:06:13.185Z,14.62
2022-09-23T18:08:41.294Z,14.60
2022-09-23T18:11:15.904Z,14.44
2022-09-23T18:13:46.525Z,14.33
2022-09-23T18:16:12.969Z,14.16
2022-09-23T18:18:39.503Z,14.14
2022-09-23T18:21:07.561Z,14.12
2022-09-23T18:23:33.933Z,14.11
2022-09-23T18:26:03.470Z,14.04
2022-09-23T18:28:34.658Z,13.92
2022-09-23T18:31:01.608Z,13.78
2022-09-23T18:33:28.047Z,13.72
2022-09-23T18:35:54.543Z,13.68
2022-09-23T18:38:21.077Z,13.58
2022-09-23T18:40:56.801Z,13.48
2022-09-23T18:43:29.551Z,13.40
2022-09-23T18:46:01.460Z,13.36
2022-09-23T18:48:48.013Z,13.32
2022-09-23T18:51:16.649Z,13.22
2022-09-23T18:53:50.049Z,13.16
2022-09-23T18:57:01.490Z,13.15
2022-09-23T18:59:29.313Z,13.10
2022-09-23T19:01:56.952Z,13.03
2022-09-23T19:04:25.434Z,12.92
2022-09-23T19:06:53.555Z,12.89
2022-09-23T19:09:20.059Z,12.87
2022-09-23T19:11:54.895Z,12.86
2022-09-23T19:14:21.498Z,12.81
2022-09-23T19:16:49.497Z,12.69
2022-09-23T19:19:16.146Z,12.70
2022-09-23T19:21:42.566Z,12.63
2022-09-23T19:24:14.381Z,12.52
2022-09-23T19:26:42.014Z,12.43
2022-09-23T19:29:15.220Z,12.42
2022-09-23T19:31:44.113Z,12.37
2022-09-23T19:34:24.618Z,12.43
2022-09-23T19:36:52.664Z,12.45
2022-09-23T19:39:22.138Z,12.43
2022-09-23T19:41:49.940Z,12.43
2022-09-23T19:44:16.902Z,12.44
2022-09-23T19:46:45.453Z,12.48
2022-09-23T19:49:12.866Z,12.34
2022-09-23T19:51:40.226Z,12.37
2022-09-23T19:54:08.034Z,12.30
2022-09-23T19:56:35.463Z,12.35
2022-09-23T19:59:05.894Z,12.28
2022-09-23T20:01:32.406Z,12.21
2022-09-23T20:04:02.237Z,12.35
2022-09-23T20:06:33.885Z,12.39
2022-09-23T20:09:01.134Z,12.40
2022-09-23T20:11:28.825Z,12.43
2022-09-23T20:14:01.094Z,12.35
2022-09-23T20:16:31.823Z,12.33
2022-09-23T20:19:01.893Z,12.28
2022-09-23T20:21:29.265Z,12.26
2022-09-23T20:23:57.219Z,12.22
2022-09-23T20:26:42.230Z,12.20
2022-09-23T20:29:10.746Z,12.14
2022-09-23T20:31:39.654Z,12.13
2022-09-23T20:34:07.146Z,12.17
2022-09-23T20:36:35.438Z,12.13
2022-09-23T20:39:05.802Z,12.10
2022-09-23T20:41:37.247Z,12.07
2022-09-23T20:44:06.352Z,11.96
2022-09-23T20:46:34.247Z,12.01
2022-09-23T20:49:06.529Z,11.96
2022-09-23T20:51:33.457Z,11.94
2022-09-23T20:54:00.498Z,11.92
2022-09-23T20:56:27.512Z,11.92
2022-09-23T20:58:54.149Z,11.88
2022-09-23T21:01:21.311Z,11.79
2022-09-23T21:03:50.296Z,11.83
2022-09-23T21:06:19.044Z,11.78
2022-09-23T21:08:46.456Z,11.81
2022-09-23T21:11:15.711Z,11.82
2022-09-23T21:13:53.104Z,11.75
2022-09-23T21:16:24.640Z,11.74
2022-09-23T21:18:54.726Z,11.72
2022-09-23T21:21:22.352Z,11.67
2022-09-23T21:23:51.627Z,11.56
2022-09-23T21:26:23.440Z,11.55
2022-09-23T21:28:52.613Z,11.49
2022-09-23T21:31:41.350Z,11.46
2022-09-23T21:34:11.132Z,11.44
2022-09-23T21:36:39.239Z,11.40
2022-09-23T21:39:07.118Z,11.38
2022-09-23T21:41:33.741Z,11.35
2022-09-23T21:44:02.760Z,11.37
2022-09-23T21:46:35.846Z,11.30
2022-09-23T21:49:05.750Z,11.31
2022-09-23T21:51:40.465Z,11.37
2022-09-23T21:54:15.686Z,11.38
2022-09-23T21:56:42.805Z,11.38
2022-09-23T21:59:10.449Z,11.36
2022-09-23T22:01:40.158Z,11.35
2022-09-23T22:04:13.307Z,11.34
2022-09-23T22:06:40.493Z,11.29
2022-09-23T22:09:12.849Z,11.27
2022-09-23T22:11:59.029Z,11.26
2022-09-23T22:14:28.488Z,11.27
2022-09-23T22:16:57.558Z,11.26
2022-09-23T22:19:26.762Z,11.20
2022-09-23T22:21:53.929Z,11.18
2022-09-23T22:24:20.428Z,11.16
2022-09-23T22:26:49.845Z,11.17
2022-09-23T22:29:35.262Z,11.14
2022-09-23T22:32:27.186Z,11.13
2022-09-23T22:34:54.891Z,11.10
2022-09-23T22:37:32.660Z,11.13
2022-09-23T22:40:00.724Z,11.08
2022-09-23T22:42:28.306Z,11.08
2022-09-23T22:44:58.319Z,11.03
2022-09-23T22:47:25.595Z,11.01
2022-09-23T22:49:55.792Z,11.07
2022-09-23T22:52:24.893Z,11.09
2022-09-23T22:54:55.485Z,11.10
2022-09-23T22:57:22.536Z,11.06
2022-09-23T22:59:49.731Z,11.03
2022-09-23T23:02:23.778Z,11.01
2022-09-23T23:04:51.132Z,11.10
2022-09-23T23:07:26.127Z,11.08
2022-09-23T23:09:58.737Z,11.10
2022-09-23T23:12:26.070Z,11.10
2022-09-23T23:14:53.079Z,11.12
2022-09-23T23:17:20.409Z,11.07
2022-09-23T23:19:47.871Z,11.05
2022-09-23T23:23:35.568Z,11.03
2022-09-23T23:26:15.077Z,11.01
2022-09-23T23:47:36.762Z,10.86
2022-09-23T23:50:37.942Z,10.83
2022-09-23T23:53:36.087Z,10.75
2022-09-23T23:56:27.337Z,10.79
